createdAt,value
2022-07-29T00:02:44.205Z,98717.03
2022-07-29T00:05:45.998Z,98728.75
2022-07-29T00:08:47.990Z,98731.50
2022-07-29T00:11:49.881Z,98712.13
2022-07-29T00:14:51.921Z,98718.81
2022-07-29T00:17:53.633Z,98717.00
2022-07-29T00:20:55.642Z,98722.06
2022-07-29T00:23:57.393Z,98722.47
2022-07-29T00:26:59.123Z,98723.53
2022-07-29T00:30:00.898Z,98722.78
2022-07-29T00:33:05.003Z,98721.41
2022-07-29T00:36:09.872Z,98705.00
2022-07-29T00:39:11.558Z,98697.56
2022-07-29T00:42:13.351Z,98706.69
2022-07-29T00:45:15.944Z,98706.88
2022-07-29T00:48:17.627Z,98721.59
2022-07-29T00:51:19.346Z,98705.78
2022-07-29T00:54:21.168Z,98708.94
2022-07-29T00:57:22.971Z,98708.09
2022-07-29T01:00:26.891Z,98720.16
2022-07-29T01:03:28.635Z,98704.16
2022-07-29T01:06:30.676Z,98712.88
2022-07-29T01:09:40.875Z,98716.06
2022-07-29T01:12:51.199Z,98715.34
2022-07-29T01:15:57.595Z,98691.88
2022-07-29T01:19:13.994Z,98686.44
2022-07-29T01:22:37.622Z,98716.53
2022-07-29T01:26:16.682Z,98702.84
2022-07-29T01:29:36.122Z,98715.34
2022-07-29T01:32:42.065Z,98708.44
2022-07-29T01:35:45.915Z,98704.09
2022-07-29T01:39:09.514Z,98721.47
2022-07-29T01:42:14.247Z,98716.44
2022-07-29T01:45:20.023Z,98719.22
2022-07-29T01:48:27.068Z,98708.38
2022-07-29T01:51:37.000Z,98713.47
2022-07-29T01:54:40.297Z,98708.47
2022-07-29T01:57:46.637Z,98712.81
2022-07-29T02:00:50.173Z,98721.78
2022-07-29T02:03:54.283Z,98717.16
2022-07-29T02:07:00.015Z,98706.22
2022-07-29T02:10:05.875Z,98724.19
2022-07-29T02:13:08.213Z,98720.63
2022-07-29T02:16:10.952Z,98729.28
2022-07-29T02:19:15.584Z,98730.91
2022-07-29T02:22:19.507Z,98725.06
2022-07-29T02:25:23.388Z,98733.72
2022-07-29T02:28:28.521Z,98725.91
2022-07-29T02:31:35.282Z,98722.47
2022-07-29T02:34:39.463Z,98724.06
2022-07-29T02:37:43.402Z,98721.72
2022-07-29T02:40:45.849Z,98715.47
2022-07-29T02:43:56.242Z,98735.50
2022-07-29T02:47:22.580Z,98727.59
2022-07-29T02:50:38.823Z,98742.06
2022-07-29T02:53:43.085Z,98738.13
2022-07-29T02:56:46.918Z,98742.13
2022-07-29T02:59:52.595Z,98740.25
2022-07-29T03:02:57.119Z,98748.50
2022-07-29T03:06:02.111Z,98750.47
2022-07-29T03:09:06.707Z,98750.47
2022-07-29T03:12:13.318Z,98755.94
2022-07-29T03:15:15.650Z,98752.00
2022-07-29T03:18:18.233Z,98756.31
2022-07-29T03:21:20.051Z,98749.28
2022-07-29T03:24:31.530Z,98749.66
2022-07-29T03:27:33.230Z,98757.16
2022-07-29T03:30:35.027Z,98747.00
2022-07-29T03:33:36.740Z,98764.22
2022-07-29T03:36:38.422Z,98760.31
2022-07-29T03:39:42.467Z,98765.03
2022-07-29T03:42:46.626Z,98758.41
2022-07-29T03:45:54.671Z,98768.22
2022-07-29T03:49:01.154Z,98765.09
2022-07-29T03:52:03.099Z,98769.78
2022-07-29T03:55:06.014Z,98773.31
2022-07-29T03:58:09.245Z,98773.69
2022-07-29T04:01:12.578Z,98772.50
2022-07-29T04:04:14.743Z,98772.50
2022-07-29T04:07:16.772Z,98768.19
2022-07-29T04:10:30.182Z,98770.91
2022-07-29T04:13:34.209Z,98766.63
2022-07-29T04:16:35.908Z,98776.00
2022-07-29T04:19:37.669Z,98769.31
2022-07-29T04:22:39.342Z,98776.81
2022-07-29T04:25:42.092Z,98786.97
2022-07-29T04:28:43.905Z,98779.94
2022-07-29T04:31:45.827Z,98786.22
2022-07-29T04:34:47.673Z,98790.13
2022-07-29T04:37:49.647Z,98801.09
2022-07-29T04:40:51.323Z,98795.63
2022-07-29T04:43:53.052Z,98793.25
2022-07-29T04:46:54.838Z,98795.63
2022-07-29T04:49:57.280Z,98794.03
2022-07-29T04:52:59.228Z,98808.16
2022-07-29T04:56:00.892Z,98805.41
2022-07-29T04:59:02.663Z,98809.31
2022-07-29T05:02:04.307Z,98808.53
2022-07-29T05:05:06.716Z,98805.03
2022-07-29T05:08:08.373Z,98806.56
2022-07-29T05:11:12.508Z,98809.31
2022-07-29T05:14:15.042Z,98805.41
2022-07-29T05:17:17.637Z,98810.50
2022-07-29T05:20:19.784Z,98817.53
2022-07-29T05:23:21.442Z,98816.75
2022-07-29T05:26:23.213Z,98819.06
2022-07-29T05:29:43.230Z,98813.97
2022-07-29T05:32:47.223Z,98831.16
2022-07-29T05:35:49.017Z,98832.69
2022-07-29T05:38:51.912Z,98836.22
2022-07-29T05:41:53.637Z,98833.94
2022-07-29T05:44:55.382Z,98843.31
2022-07-29T05:47:57.083Z,98847.25
2022-07-29T05:50:58.771Z,98849.59
2022-07-29T05:54:00.642Z,98857.41
2022-07-29T05:57:02.748Z,98854.28
2022-07-29T06:00:05.297Z,98848.78
2022-07-29T06:03:14.027Z,98852.25
2022-07-29T06:06:16.040Z,98854.16
2022-07-29T06:09:17.839Z,98863.03
2022-07-29T06:12:20.794Z,98853.94
2022-07-29T06:15:22.510Z,98865.63
2022-07-29T06:18:27.055Z,98862.41
2022-07-29T06:21:28.924Z,98857.63
2022-07-29T06:24:30.681Z,98866.97
2022-07-29T06:27:32.412Z,98861.41
2022-07-29T06:30:34.239Z,98867.66
2022-07-29T06:33:35.936Z,98862.09
2022-07-29T06:36:38.319Z,98862.88
2022-07-29T06:39:41.515Z,98860.03
2022-07-29T06:42:46.260Z,98864.72
2022-07-29T06:45:48.013Z,98859.56
2022-07-29T06:48:50.302Z,98868.84
2022-07-29T06:51:52.481Z,98864.84
2022-07-29T06:54:56.005Z,98872.94
2022-07-29T06:57:57.713Z,98869.41
2022-07-29T07:01:02.613Z,98867.53
2022-07-29T07:04:04.491Z,98875.66
2022-07-29T07:07:06.225Z,98870.69
2022-07-29T07:10:08.355Z,98882.94
2022-07-29T07:13:11.253Z,98878.50
2022-07-29T07:16:12.912Z,98881.47
2022-07-29T07:19:14.581Z,98880.56
2022-07-29T07:22:16.235Z,98888.50
2022-07-29T07:25:20.619Z,98876.66
2022-07-29T07:28:24.971Z,98889.94
2022-07-29T07:31:27.132Z,98899.19
2022-07-29T07:34:29.717Z,98903.16
2022-07-29T07:37:32.092Z,98898.25
2022-07-29T07:40:33.804Z,98912.38
2022-07-29T07:43:35.444Z,98914.34
2022-07-29T07:46:37.050Z,98908.84
2022-07-29T07:49:40.603Z,98907.50
2022-07-29T07:52:54.706Z,98909.22
2022-07-29T07:56:12.835Z,98919.22
2022-07-29T07:59:14.798Z,98906.63
2022-07-29T08:02:16.661Z,98916.44
2022-07-29T08:05:19.458Z,98919.25
2022-07-29T08:08:21.990Z,98923.22
2022-07-29T08:11:23.687Z,98927.22
2022-07-29T08:14:25.990Z,98921.69
2022-07-29T08:17:27.816Z,98916.78
2022-07-29T08:20:30.078Z,98923.88
2022-07-29T08:23:45.953Z,98927.19
2022-07-29T08:26:49.156Z,98926.38
2022-07-29T08:29:51.007Z,98939.97
2022-07-29T08:32:55.050Z,98935.47
2022-07-29T08:35:57.445Z,98937.22
2022-07-29T08:38:59.351Z,98935.63
2022-07-29T08:42:01.296Z,98941.81
2022-07-29T08:45:04.689Z,98947.59
2022-07-29T08:48:08.874Z,98941.59
2022-07-29T08:51:21.807Z,98947.69
2022-07-29T08:54:24.459Z,98941.75
2022-07-29T08:57:27.469Z,98946.56
2022-07-29T09:00:30.674Z,98948.41
2022-07-29T09:03:36.110Z,98954.41
2022-07-29T09:06:42.840Z,98944.84
2022-07-29T09:09:45.289Z,98953.59
2022-07-29T09:12:47.489Z,98952.41
2022-07-29T09:15:49.877Z,98946.34
2022-07-29T09:18:51.583Z,98941.34
2022-07-29T09:22:00.339Z,98944.69
2022-07-29T09:25:02.833Z,98952.50
2022-07-29T09:28:17.384Z,98940.63
2022-07-29T09:31:27.439Z,98943.81
2022-07-29T09:34:32.418Z,98930.25
2022-07-29T09:37:34.214Z,98931.50
2022-07-29T09:40:36.175Z,98935.75
2022-07-29T09:43:37.854Z,98927.38
2022-07-29T09:46:39.613Z,98927.13
2022-07-29T09:50:01.143Z,98919.84
2022-07-29T09:53:02.938Z,98905.31
2022-07-29T09:56:05.915Z,98913.44
2022-07-29T09:59:08.739Z,98896.84
2022-07-29T10:02:17.732Z,98907.81
2022-07-29T10:05:25.816Z,98911.94
2022-07-29T10:08:27.991Z,98913.31
2022-07-29T10:11:48.417Z,98909.41
2022-07-29T10:14:51.713Z,98918.81
2022-07-29T10:17:54.928Z,98920.66
2022-07-29T10:20:58.011Z,98914.75
2022-07-29T10:24:01.340Z,98911.53
2022-07-29T10:27:05.096Z,98913.91
2022-07-29T10:30:07.691Z,98900.47
2022-07-29T10:33:28.005Z,98904.28
2022-07-29T10:36:32.793Z,98905.53
2022-07-29T10:39:49.710Z,98909.97
2022-07-29T10:42:54.585Z,98904.75
2022-07-29T10:45:58.081Z,98915.28
2022-07-29T10:49:31.035Z,98910.03
2022-07-29T10:52:51.559Z,98914.13
2022-07-29T10:55:53.698Z,98909.69
2022-07-29T10:59:36.217Z,98915.75
2022-07-29T11:02:43.540Z,98906.06
2022-07-29T11:05:59.392Z,98892.91
2022-07-29T11:09:25.895Z,98901.75
2022-07-29T11:12:36.948Z,98910.38
2022-07-29T11:15:58.454Z,98909.47
2022-07-29T11:19:13.129Z,98909.94
2022-07-29T11:22:33.774Z,98886.59
2022-07-29T11:25:50.251Z,98910.91
2022-07-29T11:28:59.089Z,98905.63
2022-07-29T11:32:18.313Z,98905.06
2022-07-29T11:35:37.287Z,98913.91
2022-07-29T11:38:41.642Z,98913.94
2022-07-29T11:41:43.414Z,98915.31
2022-07-29T11:45:08.892Z,98917.50
2022-07-29T11:51:52.338Z,98922.28
2022-07-29T11:55:00.740Z,98920.28
2022-07-29T11:58:11.462Z,98921.88
2022-07-29T12:01:18.519Z,98908.78
2022-07-29T12:04:20.254Z,98935.69
2022-07-29T12:07:03.897Z,98922.63
2022-07-29T12:07:35.182Z,98933.94
2022-07-29T12:10:38.554Z,98920.19
2022-07-29T12:13:40.957Z,98929.47
2022-07-29T12:16:42.780Z,98919.13
2022-07-29T12:19:46.212Z,98927.38
2022-07-29T12:22:49.503Z,98927.38
2022-07-29T12:40:24.020Z,98928.78
2022-07-29T12:43:26.459Z,98933.00
2022-07-29T12:46:28.550Z,98930.47
2022-07-29T12:49:30.843Z,98919.00
2022-07-29T12:52:40.018Z,98923.00
2022-07-29T12:55:52.349Z,98924.06
2022-07-29T12:58:57.001Z,98927.59
2022-07-29T13:02:01.265Z,98927.16
2022-07-29T13:05:05.081Z,98927.06
2022-07-29T13:08:20.242Z,98923.63
2022-07-29T13:11:45.284Z,98912.50
2022-07-29T13:14:50.080Z,98917.41
2022-07-29T13:17:51.774Z,98915.94
2022-07-29T13:20:54.057Z,98917.88
2022-07-29T13:23:55.879Z,98922.09
2022-07-29T13:26:57.584Z,98913.53
2022-07-29T13:30:01.734Z,98922.06
2022-07-29T13:33:03.615Z,98934.91
2022-07-29T13:36:05.469Z,98927.53
2022-07-29T13:39:07.166Z,98923.50
2022-07-29T13:42:11.010Z,98928.13
2022-07-29T13:45:13.114Z,98928.47
2022-07-29T13:48:14.979Z,98932.34
2022-07-29T13:51:16.597Z,98924.69
2022-07-29T13:54:18.576Z,98927.81
2022-07-29T13:57:20.428Z,98915.56
2022-07-29T14:00:22.254Z,98916.22
2022-07-29T14:03:24.062Z,98911.13
2022-07-29T14:06:25.756Z,98903.06
2022-07-29T14:09:27.418Z,98906.56
2022-07-29T14:12:29.151Z,98904.16
2022-07-29T14:15:30.921Z,98908.16
2022-07-29T14:18:32.720Z,98900.66
2022-07-29T14:21:35.563Z,98902.00
2022-07-29T14:24:39.076Z,98898.19
2022-07-29T14:27:41.482Z,98898.84
2022-07-29T14:30:44.221Z,98901.41
2022-07-29T14:33:49.242Z,98906.84
2022-07-29T14:36:51.119Z,98906.19
2022-07-29T14:39:52.810Z,98909.94
2022-07-29T14:42:54.573Z,98906.19
2022-07-29T14:46:01.297Z,98903.28
2022-07-29T14:49:06.616Z,98905.38
2022-07-29T14:52:11.109Z,98905.03
2022-07-29T14:55:16.565Z,98912.06
2022-07-29T14:58:23.303Z,98913.75
2022-07-29T15:01:25.897Z,98910.63
2022-07-29T15:04:27.687Z,98904.88
2022-07-29T15:07:29.475Z,98907.22
2022-07-29T15:10:31.250Z,98903.97
2022-07-29T15:13:33.818Z,98909.75
2022-07-29T15:16:41.991Z,98912.97
2022-07-29T15:19:45.790Z,98908.84
2022-07-29T15:22:47.529Z,98909.53
2022-07-29T15:25:49.285Z,98901.88
2022-07-29T15:28:50.991Z,98904.50
2022-07-29T15:31:53.316Z,98907.31
2022-07-29T15:34:55.047Z,98907.88
2022-07-29T15:37:56.676Z,98912.88
2022-07-29T15:40:58.418Z,98898.97
2022-07-29T15:44:00.120Z,98909.41
2022-07-29T15:47:04.982Z,98918.31
2022-07-29T15:50:12.794Z,98906.06
2022-07-29T15:53:14.600Z,98896.31
2022-07-29T15:56:16.306Z,98904.22
2022-07-29T15:59:22.378Z,98905.03
2022-07-29T16:02:24.505Z,98900.41
2022-07-29T16:05:26.379Z,98892.19
2022-07-29T16:08:28.004Z,98896.59
2022-07-29T16:11:29.720Z,98889.53
2022-07-29T16:14:31.432Z,98883.75
2022-07-29T16:17:33.093Z,98870.88
2022-07-29T16:20:35.050Z,98883.75
2022-07-29T16:23:36.941Z,98880.88
2022-07-29T16:26:38.634Z,98871.03
2022-07-29T16:29:40.308Z,98872.63
2022-07-29T16:32:42.108Z,98870.66
2022-07-29T16:35:43.739Z,98874.09
2022-07-29T16:38:47.508Z,98881.25
2022-07-29T16:41:49.409Z,98870.81
2022-07-29T16:44:51.113Z,98871.25
2022-07-29T16:48:00.240Z,98884.97
2022-07-29T16:51:03.700Z,98865.81
2022-07-29T16:54:07.505Z,98872.13
2022-07-29T16:57:15.252Z,98873.59
2022-07-29T17:00:17.507Z,98876.47
2022-07-29T17:03:19.504Z,98869.09
2022-07-29T17:06:21.241Z,98878.81
2022-07-29T17:09:23.094Z,98889.66
2022-07-29T17:12:25.024Z,98892.63
2022-07-29T17:15:26.765Z,98893.09
2022-07-29T17:18:28.503Z,98900.31
2022-07-29T17:21:30.197Z,98903.56
2022-07-29T17:24:31.844Z,98916.91
2022-07-29T17:27:33.815Z,98910.78
2022-07-29T17:30:35.449Z,98912.13
2022-07-29T17:33:37.363Z,98916.09
2022-07-29T17:36:39.060Z,98919.69
2022-07-29T17:39:42.120Z,98909.59
2022-07-29T17:42:43.780Z,98918.84
2022-07-29T17:45:49.030Z,98898.91
2022-07-29T17:48:52.692Z,98919.16
2022-07-29T17:52:00.374Z,98919.56
2022-07-29T17:55:02.644Z,98910.66
2022-07-29T17:58:04.347Z,98920.75
2022-07-29T18:01:06.419Z,98913.59
2022-07-29T18:04:09.262Z,98925.19
2022-07-29T18:07:11.616Z,98919.97
2022-07-29T18:10:13.290Z,98925.88
2022-07-29T18:13:16.410Z,98922.28
2022-07-29T18:16:18.493Z,98929.44
2022-07-29T18:19:20.240Z,98932.34
2022-07-29T18:22:22.131Z,98940.66
2022-07-29T18:25:23.795Z,98937.28
2022-07-29T18:28:25.471Z,98937.97
2022-07-29T18:31:27.869Z,98938.56
2022-07-29T18:34:29.589Z,98944.09
2022-07-29T18:38:01.038Z,98931.03
2022-07-29T18:40:52.949Z,98940.63
2022-07-29T18:43:54.623Z,98946.88
2022-07-29T18:46:56.547Z,98953.75
2022-07-29T18:49:59.680Z,98954.09
2022-07-29T18:53:03.390Z,98946.72
2022-07-29T18:56:05.059Z,98946.63
2022-07-29T18:59:07.007Z,98954.97
2022-07-29T19:02:09.144Z,98950.84
2022-07-29T19:05:11.216Z,98941.19
2022-07-29T19:08:14.418Z,98953.53
2022-07-29T19:11:16.104Z,98959.91
2022-07-29T19:14:17.722Z,98954.47
2022-07-29T19:17:19.426Z,98958.25
2022-07-29T19:20:21.139Z,98962.31
2022-07-29T19:23:23.973Z,98970.78
2022-07-29T19:26:26.234Z,98968.31
2022-07-29T19:29:28.487Z,98970.72
2022-07-29T19:32:30.226Z,98988.50
2022-07-29T19:35:31.934Z,98974.00
2022-07-29T19:38:33.597Z,98980.56
2022-07-29T19:41:35.492Z,98985.06
2022-07-29T19:44:37.189Z,98970.31
2022-07-29T19:47:38.969Z,98993.25
2022-07-29T19:50:40.691Z,98987.72
2022-07-29T19:53:45.268Z,99002.75
2022-07-29T19:56:47.034Z,99004.50
2022-07-29T19:59:48.874Z,99003.22
2022-07-29T20:02:52.289Z,99008.16
2022-07-29T20:05:54.127Z,99005.41
2022-07-29T20:08:58.717Z,99002.50
2022-07-29T20:12:00.998Z,99007.78
2022-07-29T20:15:03.227Z,99011.38
2022-07-29T20:18:05.195Z,99001.69
2022-07-29T20:21:06.963Z,99006.72
2022-07-29T20:24:10.391Z,99010.13
2022-07-29T20:27:13.354Z,99010.91
2022-07-29T20:30:15.603Z,98998.72
2022-07-29T20:33:19.529Z,99011.59
2022-07-29T20:36:21.295Z,99004.94
2022-07-29T20:39:22.954Z,99014.56
2022-07-29T20:42:24.623Z,99000.19
2022-07-29T20:45:26.831Z,99014.81
2022-07-29T20:48:28.464Z,98996.00
2022-07-29T20:51:30.120Z,99013.94
2022-07-29T20:54:31.753Z,99008.75
2022-07-29T20:57:38.672Z,99005.56
2022-07-29T21:00:41.565Z,99004.03
2022-07-29T21:03:43.168Z,99017.09
2022-07-29T21:06:44.751Z,99008.59
2022-07-29T21:09:46.533Z,99011.47
2022-07-29T21:12:48.696Z,98994.63
2022-07-29T21:15:52.326Z,99005.63
2022-07-29T21:18:57.257Z,99001.31
2022-07-29T21:21:58.913Z,99013.91
2022-07-29T21:25:01.017Z,99003.28
2022-07-29T21:28:21.065Z,99016.06
2022-07-29T21:31:22.686Z,99017.25
2022-07-29T21:34:24.621Z,99014.97
2022-07-29T21:37:26.316Z,99027.75
2022-07-29T21:40:28.167Z,99024.03
2022-07-29T21:43:30.365Z,99030.56
2022-07-29T21:46:32.164Z,99030.97
2022-07-29T21:49:33.860Z,99043.06
2022-07-29T21:52:35.753Z,99042.25
2022-07-29T21:55:39.425Z,99045.72
2022-07-29T21:58:41.269Z,99036.03
2022-07-29T22:01:42.947Z,99050.50
2022-07-29T22:04:44.751Z,99054.91
2022-07-29T22:07:56.521Z,99054.84
2022-07-29T22:10:58.586Z,99056.53
2022-07-29T22:14:00.241Z,99068.03
2022-07-29T22:17:02.344Z,99050.50
2022-07-29T22:20:05.316Z,99065.84
2022-07-29T22:23:07.023Z,99069.38
2022-07-29T22:26:10.494Z,99056.53
2022-07-29T22:29:12.181Z,99069.09
2022-07-29T22:32:13.824Z,99062.13
2022-07-29T22:35:16.571Z,99067.69
2022-07-29T22:38:18.482Z,99079.50
2022-07-29T22:41:20.081Z,99056.06
2022-07-29T22:44:22.094Z,99078.34
2022-07-29T22:47:46.679Z,99078.00
2022-07-29T22:50:45.899Z,99093.34
2022-07-29T22:53:47.575Z,99085.97
2022-07-29T22:56:49.268Z,99102.50
2022-07-29T22:59:50.897Z,99099.41
2022-07-29T23:02:52.521Z,99098.38
2022-07-29T23:05:54.149Z,99099.31
2022-07-29T23:08:55.866Z,99109.63
2022-07-29T23:11:57.548Z,99111.97
2022-07-29T23:14:59.338Z,99108.88
2022-07-29T23:18:00.998Z,99119.53
2022-07-29T23:21:02.706Z,99118.06
2022-07-29T23:24:04.542Z,99127.50
2022-07-29T23:27:06.240Z,99131.84
2022-07-29T23:30:08.508Z,99131.03
2022-07-29T23:33:10.204Z,99137.31
2022-07-29T23:36:11.918Z,99139.31
2022-07-29T23:39:13.798Z,99121.66
2022-07-29T23:42:15.469Z,99129.13
2022-07-29T23:45:17.123Z,99138.16
2022-07-29T23:48:18.727Z,99142.88
2022-07-29T23:51:20.990Z,99132.69
2022-07-29T23:54:22.880Z,99130.34
2022-07-29T23:57:26.423Z,99144.44
